You must use a browser capable of displaying tables to view this page.

The table shows the data used to make the storm track maps. Click on the storm name in the first row to get a close up view of the storm track.

Name Date Time (UT) Lat (degrees) Lon (degrees) Course (true) Speed (knots) Pressure (mb) Wind (knots) Gusts (knots) Type Actual / Forecast WMO
MEARI 2011-06-21 18:00 12.6N 130.1E 305 11 ??? 025 035 DEP ACT WTPN32
MEARI 2011-06-22 00:00 13.6N 128.5E 305 12 ??? 035 045 STO ACT WTPN32
MEARI 2011-06-22 06:00 14.5N 127.4E 310 14 ??? 035 045 STO ACT WTPN32
MEARI 2011-06-22 12:00 15.6N 126.3E 315 15 ??? 040 050 STO ACT WTPN32
MEARI 2011-06-22 18:00 14.8N 128.0E 310 08 ??? 040 050 STO ACT WTPN32
MEARI 2011-06-23 00:00 15.4N 128.1E 335 07 ??? 040 050 STO ACT WTPN32
MEARI 2011-06-23 06:00 17.1N 126.8E 325 13 ??? 040 050 STO ACT WTPN32
MEARI 2011-06-23 12:00 18.0N 125.9E 315 12 ??? 040 050 STO ACT WTPN32
MEARI 2011-06-23 18:00 19.5N 126.0E 340 14 ??? 045 055 STO ACT WTPN32
MEARI 2011-06-24 00:00 20.6N 125.6E 345 13 ??? 050 065 STO ACT WTPN32
MEARI 2011-06-24 06:00 21.8N 125.5E 355 12 ??? 050 065 STO ACT WTPN32
MEARI 2011-06-24 12:00 23.1N 125.1E 350 12 ??? 055 070 STO ACT WTPN32
MEARI 2011-06-24 18:00 25.4N 124.1E 345 18 ??? 055 070 STO ACT WTPN32
MEARI 2011-06-25 00:00 27.4N 123.8E 355 19 ??? 060 075 STO ACT WTPN32
MEARI 2011-06-25 06:00 29.1N 123.7E 355 17 ??? 050 065 STO ACT WTPN32
MEARI 2011-06-25 12:00 30.4N 123.6E 355 13 ??? 045 055 STO ACT WTPN32
MEARI 2011-06-25 18:00 32.1N 124.7E 010 21 ??? 045 055 STO ACT WTPN32
MEARI 2011-06-26 00:00 35.1N 124.4E 355 30 ??? 040 050 STO ACT WTPN32
MEARI 2011-06-26 06:00 36.7N 122.8E 320 21 ??? 035 045 STO ACT WTPN32
MEARI 2011-06-26 12:00 37.3N 122.5E 340 06 ??? 030 040 DEP ACT WTPN32
MEARI 2011-06-26 18:00 37.7N 123.5E 055 09 ??? 030 040 DEP ACT WTPN32
MEARI 2011-06-27 00:00 38.3N 124.7E 055 11 ??? 025 035 DEP ACT WTPN32
MEARI 2011-06-27 12:00 39.9N 127.5E ??? ??? ??? 020 030 ??? FOR WTPN32
MEARI 2011-06-28 00:00 41.9N 130.9E ??? ??? ??? 020 030 ??? FOR WTPN32


Home Back

metcalf@akala.ifa.hawaii.edu